createdAt,value
2018-10-19T00:00:20.140Z,13.38
2018-10-19T00:01:20.349Z,13.31
2018-10-19T00:02:20.353Z,13.38
2018-10-19T00:03:20.872Z,13.3
2018-10-19T00:04:20.360Z,13.3
2018-10-19T00:05:20.888Z,13.31
2018-10-19T00:06:20.620Z,13.25
2018-10-19T00:07:20.372Z,13.25
2018-10-19T00:08:20.630Z,13.31
2018-10-19T00:09:20.790Z,13.18
2018-10-19T00:10:20.647Z,13.16
2018-10-19T00:11:20.802Z,13.19
2018-10-19T00:12:20.650Z,13.16
2018-10-19T00:13:20.658Z,13.16
2018-10-19T00:14:20.667Z,13.16
2018-10-19T00:15:20.588Z,13.13
2018-10-19T00:16:20.672Z,13.16
2018-10-19T00:17:20.839Z,13.16
2018-10-19T00:18:20.677Z,13.2
2018-10-19T00:19:20.692Z,13.18
2018-10-19T00:20:20.745Z,13.16
2018-10-19T00:21:20.435Z,13.08
2018-10-19T00:22:20.702Z,13.13
2018-10-19T00:23:20.436Z,13.18
2018-10-19T00:24:20.683Z,13.09
2018-10-19T00:25:20.686Z,13.01
2018-10-19T00:26:20.441Z,13.09
2018-10-19T00:27:20.814Z,13.09
2018-10-19T00:28:20.450Z,13.08
2018-10-19T00:29:20.875Z,13
2018-10-19T00:30:20.219Z,12.97
2018-10-19T00:31:20.727Z,12.94
2018-10-19T00:32:20.736Z,12.9
2018-10-19T00:33:20.811Z,12.93
2018-10-19T00:34:20.745Z,12.94
2018-10-19T00:35:20.750Z,12.8
2018-10-19T00:36:20.752Z,12.83
2018-10-19T00:37:20.297Z,12.76
2018-10-19T00:38:20.762Z,12.79
2018-10-19T00:39:20.886Z,12.78
2018-10-19T00:40:20.523Z,12.83
2018-10-19T00:41:20.521Z,12.79
2018-10-19T00:42:20.780Z,12.78
2018-10-19T00:43:20.526Z,12.8
2018-10-19T00:44:20.790Z,12.75
2018-10-19T00:45:20.964Z,12.61
2018-10-19T00:46:20.798Z,12.68
2018-10-19T00:47:20.548Z,12.57
2018-10-19T00:48:20.549Z,12.65
2018-10-19T00:49:20.449Z,12.65
2018-10-19T00:50:20.808Z,12.62
2018-10-19T00:51:20.563Z,12.65
2018-10-19T00:52:20.825Z,12.62
2018-10-19T00:53:21.157Z,12.61
2018-10-19T00:54:20.885Z,12.65
2018-10-19T00:55:20.827Z,12.6
2018-10-19T00:56:20.841Z,12.67
2018-10-19T00:57:20.971Z,12.61
2018-10-19T00:58:20.844Z,12.61
2018-10-19T00:59:20.602Z,12.57
2018-10-19T01:00:20.848Z,12.6
2018-10-19T01:01:20.854Z,12.62
2018-10-19T01:02:20.856Z,12.61
2018-10-19T01:03:21.047Z,12.64
2018-10-19T01:04:20.915Z,12.61
2018-10-19T01:05:20.823Z,12.61
2018-10-19T01:06:20.873Z,12.62
2018-10-19T01:07:20.878Z,12.72
2018-10-19T01:08:20.878Z,12.79
2018-10-19T01:09:20.885Z,12.79
2018-10-19T01:10:20.884Z,12.8
2018-10-19T01:11:20.819Z,12.78
2018-10-19T01:12:20.643Z,12.83
2018-10-19T01:13:20.651Z,12.65
2018-10-19T01:14:20.907Z,12.8
2018-10-19T01:15:20.724Z,12.78
2018-10-19T01:16:20.648Z,12.76
2018-10-19T01:17:21.041Z,12.79
2018-10-19T01:18:20.905Z,12.76
2018-10-19T01:19:20.957Z,12.76
2018-10-19T01:20:20.661Z,12.62
2018-10-19T01:21:20.914Z,12.62
2018-10-19T01:22:20.918Z,12.67
2018-10-19T01:23:21.121Z,12.68
2018-10-19T01:24:20.950Z,12.67
2018-10-19T01:25:20.949Z,12.61
2018-10-19T01:26:20.719Z,12.67
2018-10-19T01:27:21.072Z,12.61
2018-10-19T01:28:20.966Z,12.68
2018-10-19T01:29:20.720Z,12.7
2018-10-19T01:30:20.972Z,12.61
2018-10-19T01:31:20.732Z,12.6
2018-10-19T01:32:20.732Z,12.6
2018-10-19T01:33:21.216Z,12.57
2018-10-19T01:34:20.730Z,12.61
2018-10-19T01:35:21.172Z,12.54
2018-10-19T01:36:20.740Z,12.53
2018-10-19T01:37:20.741Z,12.55
2018-10-19T01:38:20.796Z,12.5
2018-10-19T01:39:20.760Z,12.45
2018-10-19T01:40:21.005Z,12.42
2018-10-19T01:41:21.219Z,12.5
2018-10-19T01:42:20.768Z,12.4
2018-10-19T01:43:21.026Z,12.46
2018-10-19T01:44:21.025Z,12.46
2018-10-19T01:45:21.087Z,12.47
2018-10-19T01:46:21.030Z,12.43
2018-10-19T01:47:21.040Z,12.53
2018-10-19T01:48:20.780Z,12.43
2018-10-19T01:49:21.038Z,12.47
2018-10-19T01:50:21.037Z,12.54
2018-10-19T01:51:21.292Z,12.47
2018-10-19T01:52:21.044Z,12.47
2018-10-19T01:53:21.343Z,12.42
2018-10-19T01:54:21.051Z,12.36
2018-10-19T01:55:20.815Z,12.31
2018-10-19T01:56:21.074Z,12.36
2018-10-19T01:57:21.168Z,12.35
2018-10-19T01:58:20.820Z,12.35
2018-10-19T01:59:21.276Z,12.31
2018-10-19T02:00:21.073Z,12.42
2018-10-19T02:01:20.828Z,12.31
2018-10-19T02:02:20.829Z,12.39
2018-10-19T02:03:21.254Z,12.37
2018-10-19T02:04:21.086Z,12.27
2018-10-19T02:05:21.103Z,12.28
2018-10-19T02:06:21.096Z,12.28
2018-10-19T02:07:20.854Z,12.29
2018-10-19T02:08:21.112Z,12.32
2018-10-19T02:09:20.908Z,12.31
2018-10-19T02:10:21.116Z,12.32
2018-10-19T02:11:21.122Z,12.22
2018-10-19T02:12:20.865Z,12.17
2018-10-19T02:13:21.121Z,12.12
2018-10-19T02:14:21.136Z,12.09
2018-10-19T02:15:21.240Z,12.21
2018-10-19T02:16:21.140Z,12.22
2018-10-19T02:17:21.141Z,12.18
2018-10-19T02:18:20.893Z,12.15
2018-10-19T02:19:21.146Z,12.07
2018-10-19T02:20:21.153Z,12.06
2018-10-19T02:21:20.909Z,12.12
2018-10-19T02:22:20.900Z,12.13
2018-10-19T02:23:21.430Z,12.04
2018-10-19T02:24:20.909Z,11.95
2018-10-19T02:25:20.914Z,12.02
2018-10-19T02:26:20.915Z,12.03
2018-10-19T02:27:21.430Z,12.02
2018-10-19T02:28:21.173Z,11.95
2018-10-19T02:29:21.188Z,11.86
2018-10-19T02:30:20.954Z,11.94
2018-10-19T02:31:21.200Z,11.94
2018-10-19T02:32:21.202Z,12.06
2018-10-19T02:33:21.702Z,11.97
2018-10-19T02:34:21.208Z,12.04
2018-10-19T02:35:21.453Z,12.03
2018-10-19T02:36:20.965Z,11.99
2018-10-19T02:37:20.989Z,11.9
2018-10-19T02:38:20.977Z,11.86
2018-10-19T02:39:21.539Z,11.9
2018-10-19T02:40:21.219Z,11.94
2018-10-19T02:41:21.353Z,11.94
2018-10-19T02:42:21.240Z,12.02
2018-10-19T02:43:21.234Z,11.95
2018-10-19T02:44:21.240Z,12
2018-10-19T02:45:21.582Z,11.97
2018-10-19T02:46:20.998Z,12.04
2018-10-19T02:47:21.175Z,11.99
2018-10-19T02:48:20.999Z,11.95
2018-10-19T02:49:21.003Z,12.07
2018-10-19T02:50:21.017Z,11.99
2018-10-19T02:51:21.208Z,11.97
2018-10-19T02:52:21.011Z,11.94
2018-10-19T02:53:21.202Z,11.91
2018-10-19T02:54:21.287Z,11.86
2018-10-19T02:55:21.285Z,11.8
2018-10-19T02:56:21.298Z,11.9
2018-10-19T02:57:21.595Z,11.87
2018-10-19T02:58:21.307Z,11.88
2018-10-19T02:59:21.170Z,11.9
2018-10-19T03:00:21.354Z,11.9
2018-10-19T03:01:21.315Z,11.9
2018-10-19T03:02:21.309Z,11.8
2018-10-19T03:03:21.357Z,11.75
2018-10-19T03:04:21.316Z,11.73
2018-10-19T03:05:21.257Z,11.72
2018-10-19T03:06:21.325Z,11.66
2018-10-19T03:07:21.323Z,11.69
2018-10-19T03:08:21.341Z,11.73
2018-10-19T03:09:21.399Z,11.7
2018-10-19T03:10:21.346Z,11.7
2018-10-19T03:11:21.664Z,11.73
2018-10-19T03:12:21.337Z,11.73
2018-10-19T03:13:21.359Z,11.69
2018-10-19T03:14:21.100Z,11.69
2018-10-19T03:15:21.327Z,11.77
2018-10-19T03:16:21.359Z,11.69
2018-10-19T03:17:21.498Z,11.72
2018-10-19T03:18:21.362Z,11.66
2018-10-19T03:19:21.118Z,11.77
2018-10-19T03:20:21.168Z,11.72
2018-10-19T03:21:21.583Z,11.72
2018-10-19T03:22:21.379Z,11.69
2018-10-19T03:23:21.494Z,11.7
2018-10-19T03:24:21.142Z,11.77
2018-10-19T03:25:21.148Z,11.72
2018-10-19T03:26:21.402Z,11.7
2018-10-19T03:27:21.499Z,11.77
2018-10-19T03:28:21.416Z,11.78
2018-10-19T03:29:21.343Z,11.73
2018-10-19T03:30:21.392Z,11.73
2018-10-19T03:31:21.286Z,11.69
2018-10-19T03:32:21.402Z,11.66
2018-10-19T03:33:21.831Z,11.72
2018-10-19T03:34:21.404Z,11.66
2018-10-19T03:35:21.607Z,11.6
2018-10-19T03:36:21.407Z,11.66
2018-10-19T03:37:21.474Z,11.62
2018-10-19T03:38:21.416Z,11.66
2018-10-19T03:39:21.662Z,11.51
2018-10-19T03:40:21.437Z,11.54
2018-10-19T03:41:21.473Z,11.66
2018-10-19T03:42:21.187Z,11.52
2018-10-19T03:43:21.443Z,11.6
2018-10-19T03:44:21.447Z,11.62
2018-10-19T03:45:21.591Z,11.63
2018-10-19T03:46:21.460Z,11.62
2018-10-19T03:47:21.798Z,11.65
2018-10-19T03:48:21.453Z,11.63
2018-10-19T03:49:21.929Z,11.65
2018-10-19T03:50:21.473Z,11.59
2018-10-19T03:51:21.376Z,11.55
2018-10-19T03:52:21.210Z,11.48
2018-10-19T03:53:21.896Z,11.6
2018-10-19T03:54:21.536Z,11.57
2018-10-19T03:55:21.489Z,11.63
2018-10-19T03:56:21.496Z,11.57
2018-10-19T03:57:21.359Z,11.54
2018-10-19T03:58:21.500Z,11.6
2018-10-19T03:59:21.777Z,11.5
2018-10-19T04:00:21.264Z,11.59
2018-10-19T04:01:21.255Z,11.57
2018-10-19T04:02:21.503Z,11.55
2018-10-19T04:03:21.573Z,11.62
2018-10-19T04:04:21.509Z,11.62
2018-10-19T04:05:21.686Z,11.5
2018-10-19T04:06:21.520Z,11.59
2018-10-19T04:07:21.527Z,11.55
2018-10-19T04:08:21.533Z,11.52
2018-10-19T04:09:21.539Z,11.57
2018-10-19T04:10:21.546Z,11.47
2018-10-19T04:11:21.679Z,11.5
2018-10-19T04:12:21.551Z,11.59
2018-10-19T04:13:21.296Z,11.54
2018-10-19T04:14:22.296Z,11.59
2018-10-19T04:15:21.924Z,11.59
2018-10-19T04:16:21.303Z,11.57
2018-10-19T04:17:21.779Z,11.5
2018-10-19T04:18:21.567Z,11.57
2018-10-19T04:19:21.568Z,11.54
2018-10-19T04:20:21.316Z,11.59
2018-10-19T04:21:21.911Z,11.51
2018-10-19T04:22:21.326Z,11.54
2018-10-19T04:23:21.865Z,11.44
2018-10-19T04:24:21.590Z,11.5
2018-10-19T04:25:21.587Z,11.45
2018-10-19T04:26:21.588Z,11.47
2018-10-19T04:27:22.119Z,11.54
2018-10-19T04:28:21.342Z,11.41
2018-10-19T04:29:21.095Z,11.47
2018-10-19T04:30:21.594Z,11.41
2018-10-19T04:31:21.603Z,11.43
2018-10-19T04:32:21.606Z,11.45
2018-10-19T04:33:21.927Z,11.43
2018-10-19T04:34:21.364Z,11.37
2018-10-19T04:35:21.806Z,11.35
2018-10-19T04:36:21.644Z,11.36
2018-10-19T04:37:21.398Z,11.41
2018-10-19T04:38:21.414Z,11.36
2018-10-19T04:39:21.515Z,11.27
2018-10-19T04:40:21.640Z,11.27
2018-10-19T04:41:22.056Z,11.35
2018-10-19T04:42:21.641Z,11.35
2018-10-19T04:43:21.392Z,11.35
2018-10-19T04:44:21.393Z,11.25
2018-10-19T04:45:21.827Z,11.29
2018-10-19T04:46:21.672Z,11.26
2018-10-19T04:47:21.680Z,11.23
2018-10-19T04:48:21.664Z,11.37
2018-10-19T04:49:21.409Z,11.35
2018-10-19T04:50:21.666Z,11.33
2018-10-19T04:51:21.811Z,11.3
2018-10-19T04:52:21.711Z,11.32
2018-10-19T04:53:22.073Z,11.32
2018-10-19T04:54:21.423Z,11.29
2018-10-19T04:55:21.438Z,11.25
2018-10-19T04:56:21.705Z,11.25
2018-10-19T04:57:21.695Z,11.19
2018-10-19T04:58:21.503Z,11.3
2018-10-19T04:59:21.821Z,11.23
2018-10-19T05:00:21.702Z,11.27
2018-10-19T05:01:21.456Z,11.29
2018-10-19T05:02:21.528Z,11.26
2018-10-19T05:03:21.618Z,11.25
2018-10-19T05:04:21.714Z,11.14
2018-10-19T05:05:22.370Z,11.12
2018-10-19T05:06:21.916Z,11.1
2018-10-19T05:07:21.508Z,11.08
2018-10-19T05:08:22.178Z,11.08
2018-10-19T05:09:21.724Z,11.1
2018-10-19T05:10:21.730Z,11.02
2018-10-19T05:11:22.030Z,11.15
2018-10-19T05:12:21.834Z,11.14
2018-10-19T05:13:21.537Z,11.1
2018-10-19T05:14:22.215Z,11.19
2018-10-19T05:15:21.485Z,11.17
2018-10-19T05:16:21.773Z,11.22
2018-10-19T05:17:22.102Z,11.14
2018-10-19T05:18:21.756Z,11.19
2018-10-19T05:19:21.753Z,11.07
2018-10-19T05:20:21.911Z,11.19
2018-10-19T05:21:21.914Z,11.08
2018-10-19T05:22:21.498Z,11.07
2018-10-19T05:23:21.676Z,11.19
2018-10-19T05:24:21.767Z,11.15
2018-10-19T05:25:21.270Z,11.18
2018-10-19T05:26:21.903Z,11.29
2018-10-19T05:27:21.787Z,11.18
2018-10-19T05:28:21.781Z,11.22
2018-10-19T05:29:21.945Z,11.26
2018-10-19T05:30:21.905Z,11.29
2018-10-19T05:31:21.798Z,11.29
2018-10-19T05:32:21.546Z,11.33
2018-10-19T05:33:21.799Z,11.25
2018-10-19T05:34:21.540Z,11.3
2018-10-19T05:35:21.694Z,11.32
2018-10-19T05:36:21.801Z,11.4
2018-10-19T05:37:21.547Z,11.33
2018-10-19T05:38:22.025Z,11.35
2018-10-19T05:39:21.808Z,11.3
2018-10-19T05:40:21.861Z,11.33
2018-10-19T05:41:21.697Z,11.35
2018-10-19T05:42:21.848Z,11.37
2018-10-19T05:43:21.588Z,11.4
2018-10-19T05:44:21.959Z,11.32
2018-10-19T05:45:21.577Z,11.35
2018-10-19T05:46:21.831Z,11.32
2018-10-19T05:47:21.686Z,11.37
2018-10-19T05:48:21.607Z,11.32
2018-10-19T05:49:21.854Z,11.36
2018-10-19T05:50:21.770Z,11.41
2018-10-19T05:51:21.856Z,11.35
2018-10-19T05:52:21.970Z,11.4
2018-10-19T05:53:22.048Z,11.4
2018-10-19T05:54:21.881Z,11.4
2018-10-19T05:55:21.915Z,11.43
2018-10-19T05:56:22.009Z,11.4
2018-10-19T05:57:21.850Z,11.44
2018-10-19T05:58:21.861Z,11.44
2018-10-19T05:59:22.035Z,11.41
2018-10-19T06:00:21.864Z,11.43
2018-10-19T06:01:21.868Z,11.4
2018-10-19T06:02:22.261Z,11.41
2018-10-19T06:03:21.892Z,11.35
2018-10-19T06:04:21.632Z,11.32
2018-10-19T06:05:21.747Z,11.33
2018-10-19T06:06:21.901Z,11.36
2018-10-19T06:07:21.391Z,11.35
2018-10-19T06:08:22.120Z,11.25
2018-10-19T06:09:21.909Z,11.3
2018-10-19T06:10:21.909Z,11.32
2018-10-19T06:11:21.410Z,11.36
2018-10-19T06:12:21.918Z,11.33
2018-10-19T06:13:21.927Z,11.29
2018-10-19T06:14:21.676Z,11.35
2018-10-19T06:15:21.930Z,11.35
2018-10-19T06:16:21.936Z,11.41
2018-10-19T06:17:21.932Z,11.35
2018-10-19T06:18:21.935Z,11.32
2018-10-19T06:19:21.687Z,11.4
2018-10-19T06:20:22.214Z,11.35
2018-10-19T06:21:22.140Z,11.37
2018-10-19T06:22:22.006Z,11.45
2018-10-19T06:23:21.802Z,11.45
2018-10-19T06:24:21.952Z,11.41
2018-10-19T06:25:22.003Z,11.44
2018-10-19T06:26:22.065Z,11.52
2018-10-19T06:27:21.453Z,11.51
2018-10-19T06:28:21.719Z,11.54
2018-10-19T06:29:22.157Z,11.48
2018-10-19T06:30:21.985Z,11.48
2018-10-19T06:31:21.974Z,11.52
2018-10-19T06:32:22.170Z,11.54
2018-10-19T06:33:21.979Z,11.54
2018-10-19T06:34:21.981Z,11.52
2018-10-19T06:35:22.122Z,11.62
2018-10-19T06:36:21.735Z,11.63
2018-10-19T06:37:22.027Z,11.73
2018-10-19T06:38:22.127Z,11.77
2018-10-19T06:39:21.744Z,11.78
2018-10-19T06:40:22.051Z,11.9
2018-10-19T06:41:22.301Z,11.9
2018-10-19T06:42:21.498Z,11.97
2018-10-19T06:43:21.755Z,12.03
2018-10-19T06:44:22.222Z,12.12
2018-10-19T06:45:22.077Z,12.04
2018-10-19T06:46:22.017Z,12.07
2018-10-19T06:47:22.483Z,12.07
2018-10-19T06:48:22.027Z,12.13
2018-10-19T06:49:22.043Z,12.18
2018-10-19T06:50:22.084Z,12.18
2018-10-19T06:51:22.039Z,12.25
2018-10-19T06:52:22.050Z,12.28
2018-10-19T06:53:22.046Z,12.32
2018-10-19T06:54:21.798Z,12.27
2018-10-19T06:55:22.051Z,12.32
2018-10-19T06:56:22.105Z,12.35
2018-10-19T06:57:22.060Z,12.37
2018-10-19T06:58:21.809Z,12.39
2018-10-19T06:59:22.473Z,12.46
2018-10-19T07:00:22.070Z,12.45
2018-10-19T07:01:22.082Z,12.5
2018-10-19T07:02:22.242Z,12.5
2018-10-19T07:03:22.082Z,12.5
2018-10-19T07:04:22.182Z,12.47
2018-10-19T07:05:22.090Z,12.58
2018-10-19T07:06:22.317Z,12.6
2018-10-19T07:07:22.100Z,12.67
2018-10-19T07:08:22.208Z,12.67
2018-10-19T07:09:22.107Z,12.65
2018-10-19T07:10:21.856Z,12.62
2018-10-19T07:11:22.113Z,12.7
2018-10-19T07:12:21.991Z,12.72
2018-10-19T07:13:22.121Z,12.64
2018-10-19T07:14:21.867Z,12.64
2018-10-19T07:15:22.105Z,12.58
2018-10-19T07:16:22.119Z,12.62
2018-10-19T07:17:22.115Z,12.64
2018-10-19T07:18:22.133Z,12.64
2018-10-19T07:19:21.918Z,12.65
2018-10-19T07:20:22.140Z,12.67
2018-10-19T07:21:21.895Z,12.68
2018-10-19T07:22:22.156Z,12.61
2018-10-19T07:23:21.651Z,12.64
2018-10-19T07:24:22.165Z,12.65
2018-10-19T07:25:22.165Z,12.64
2018-10-19T07:26:22.175Z,12.75
2018-10-19T07:27:21.920Z,12.79
2018-10-19T07:28:22.190Z,12.85
2018-10-19T07:29:21.703Z,12.86
2018-10-19T07:30:21.932Z,12.87
2018-10-19T07:31:22.189Z,12.83
2018-10-19T07:32:22.194Z,12.8
2018-10-19T07:33:22.195Z,12.85
2018-10-19T07:34:22.199Z,12.91
2018-10-19T07:35:22.350Z,13
2018-10-19T07:36:22.399Z,12.94
2018-10-19T07:37:22.212Z,13.01
2018-10-19T07:38:22.017Z,13
2018-10-19T07:39:21.715Z,13.16
2018-10-19T07:40:21.974Z,13.2
2018-10-19T07:41:22.231Z,13.27
2018-10-19T07:42:21.912Z,13.25
2018-10-19T07:43:21.994Z,13.28
2018-10-19T07:44:22.273Z,13.37
2018-10-19T07:45:21.995Z,13.28
2018-10-19T07:46:22.257Z,13.31
2018-10-19T07:47:23.004Z,13.33
2018-10-19T07:48:22.081Z,13.47
2018-10-19T07:49:22.045Z,13.49
2018-10-19T07:50:22.027Z,13.56
2018-10-19T07:51:22.281Z,13.56
2018-10-19T07:52:22.292Z,13.54
2018-10-19T07:53:22.286Z,13.62
2018-10-19T07:54:22.607Z,13.63
2018-10-19T07:55:22.305Z,13.7
2018-10-19T07:56:22.456Z,13.71
2018-10-19T07:57:21.795Z,13.75
2018-10-19T07:58:22.325Z,13.83
2018-10-19T07:59:22.324Z,13.92
2018-10-19T08:00:22.688Z,13.92
2018-10-19T08:01:22.264Z,13.89
2018-10-19T08:02:22.335Z,14.04
2018-10-19T08:03:22.333Z,14.07
2018-10-19T08:04:22.396Z,14.12
2018-10-19T08:05:22.530Z,14.2
2018-10-19T08:06:22.354Z,14.35
2018-10-19T08:07:22.100Z,14.45
2018-10-19T08:08:22.358Z,14.48
2018-10-19T08:09:22.182Z,14.48
2018-10-19T08:10:22.358Z,14.58
2018-10-19T08:11:22.638Z,14.55
2018-10-19T08:12:22.375Z,14.63
2018-10-19T08:13:21.883Z,14.59
2018-10-19T08:14:22.123Z,14.59
2018-10-19T08:15:22.126Z,14.78
2018-10-19T08:16:21.878Z,14.77
2018-10-19T08:17:22.395Z,14.85
2018-10-19T08:18:22.396Z,14.85
2018-10-19T08:19:22.416Z,14.85
2018-10-19T08:20:22.755Z,14.88
2018-10-19T08:21:22.341Z,14.85
2018-10-19T08:22:22.176Z,14.99
2018-10-19T08:23:22.445Z,14.94
2018-10-19T08:24:22.494Z,14.97
2018-10-19T08:25:22.447Z,14.88
2018-10-19T08:26:22.589Z,14.84
2018-10-19T08:27:22.819Z,14.86
2018-10-19T08:28:22.208Z,14.97
2018-10-19T08:29:22.229Z,14.94
2018-10-19T08:30:22.472Z,15.11
2018-10-19T08:31:22.481Z,15.19
2018-10-19T08:32:22.233Z,15.19
2018-10-19T08:33:22.490Z,15.28
2018-10-19T08:34:22.550Z,15.42
2018-10-19T08:35:22.248Z,15.36
2018-10-19T08:36:22.507Z,15.4
2018-10-19T08:37:22.623Z,15.37
2018-10-19T08:38:22.627Z,15.51
2018-10-19T08:39:22.275Z,15.51
2018-10-19T08:40:22.528Z,15.59
2018-10-19T08:41:22.763Z,15.64
2018-10-19T08:42:22.541Z,15.67
2018-10-19T08:43:22.529Z,15.73
2018-10-19T08:44:22.565Z,15.8
2018-10-19T08:45:22.456Z,15.7
2018-10-19T08:46:22.560Z,15.54
2018-10-19T08:47:22.323Z,15.43
2018-10-19T08:48:22.579Z,15.44
2018-10-19T08:49:22.333Z,15.54
2018-10-19T08:50:22.590Z,15.47
2018-10-19T08:51:22.756Z,15.44
2018-10-19T08:52:22.399Z,15.55
2018-10-19T08:53:22.439Z,15.58
2018-10-19T08:54:22.357Z,15.61
2018-10-19T08:55:22.643Z,15.68
2018-10-19T08:56:22.379Z,15.79
2018-10-19T08:57:22.852Z,15.83
2018-10-19T08:58:22.619Z,15.91
2018-10-19T08:59:22.808Z,16.02
2018-10-19T09:00:22.403Z,15.95
2018-10-19T09:01:22.206Z,16.05
2018-10-19T09:02:22.663Z,16.09
2018-10-19T09:03:22.765Z,16.21
2018-10-19T09:04:22.674Z,16.31
2018-10-19T09:05:22.430Z,16.29
2018-10-19T09:06:22.697Z,16.32
2018-10-19T09:07:22.445Z,16.42
2018-10-19T09:08:22.701Z,16.29
2018-10-19T09:09:22.707Z,16.41
2018-10-19T09:10:22.460Z,16.33
2018-10-19T09:11:22.779Z,16.35
2018-10-19T09:12:22.769Z,16.47
2018-10-19T09:13:22.494Z,16.39
2018-10-19T09:14:22.740Z,16.43
2018-10-19T09:15:22.669Z,16.53
2018-10-19T09:16:22.503Z,16.54
2018-10-19T09:17:22.517Z,16.6
2018-10-19T09:18:22.573Z,16.54
2018-10-19T09:19:22.525Z,16.51
2018-10-19T09:20:22.524Z,16.57
2018-10-19T09:21:22.797Z,16.42
2018-10-19T09:22:22.790Z,16.49
2018-10-19T09:23:22.551Z,16.39
2018-10-19T09:24:22.297Z,16.42
2018-10-19T09:25:22.558Z,16.41
2018-10-19T09:26:22.826Z,16.57
2018-10-19T09:27:22.830Z,16.51
2018-10-19T09:28:22.833Z,16.54
2018-10-19T09:29:22.973Z,16.57
2018-10-19T09:30:22.842Z,16.58
2018-10-19T09:31:22.872Z,16.6
2018-10-19T09:32:22.855Z,16.61
2018-10-19T09:33:22.613Z,16.51
2018-10-19T09:34:22.876Z,16.6
2018-10-19T09:35:22.890Z,16.72
2018-10-19T09:36:23.217Z,16.71
2018-10-19T09:37:22.892Z,16.66
2018-10-19T09:38:22.693Z,16.72
2018-10-19T09:39:22.909Z,16.78
2018-10-19T09:40:23.323Z,16.78
2018-10-19T09:41:22.856Z,16.75
2018-10-19T09:42:22.927Z,16.74
2018-10-19T09:43:22.778Z,16.84
2018-10-19T09:44:22.939Z,16.91
2018-10-19T09:45:22.695Z,16.89
2018-10-19T09:46:22.948Z,16.89
2018-10-19T09:47:23.089Z,17.02
2018-10-19T09:48:22.962Z,16.84
2018-10-19T09:49:22.723Z,16.99
2018-10-19T09:50:22.984Z,17.09
2018-10-19T09:51:22.742Z,17.2
2018-10-19T09:52:22.772Z,17.26
2018-10-19T09:53:22.494Z,17.31
2018-10-19T09:54:22.756Z,17.38
2018-10-19T09:55:23.284Z,17.39
2018-10-19T09:56:23.377Z,17.44
2018-10-19T09:57:23.092Z,17.6
2018-10-19T09:58:23.044Z,17.67
2018-10-19T09:59:22.836Z,17.74
2018-10-19T10:00:23.039Z,17.74
2018-10-19T10:01:23.255Z,18
2018-10-19T10:02:22.853Z,18.1
2018-10-19T10:03:23.065Z,18.16
2018-10-19T10:04:23.064Z,18.22
2018-10-19T10:05:22.857Z,18.23
2018-10-19T10:06:22.839Z,18.34
2018-10-19T10:07:23.110Z,18.41
2018-10-19T10:08:22.856Z,18.37
2018-10-19T10:09:22.866Z,18.55
2018-10-19T10:10:23.129Z,18.75
2018-10-19T10:11:23.148Z,18.9
2018-10-19T10:12:23.140Z,19.16
2018-10-19T10:13:23.158Z,19.39
2018-10-19T10:14:23.164Z,19.49
2018-10-19T10:15:23.234Z,19.79
2018-10-19T10:16:23.180Z,19.94
2018-10-19T10:17:23.187Z,19.89
2018-10-19T10:18:23.193Z,19.89
2018-10-19T10:19:23.233Z,20.28
2018-10-19T10:20:23.275Z,20.51
2018-10-19T10:21:23.226Z,20.47
2018-10-19T10:22:22.979Z,20.5
2018-10-19T10:23:22.991Z,20.32
2018-10-19T10:24:23.261Z,20.43
2018-10-19T10:25:23.242Z,20.65
2018-10-19T10:26:23.017Z,20.65
2018-10-19T10:27:23.329Z,20.8
2018-10-19T10:28:23.294Z,21
2018-10-19T10:29:23.299Z,21.05
2018-10-19T10:30:23.319Z,21.07
2018-10-19T10:31:23.328Z,21.02
2018-10-19T10:32:23.548Z,21.03
2018-10-19T10:33:23.361Z,20.93
2018-10-19T10:34:23.364Z,21.05
2018-10-19T10:35:23.116Z,21.15
2018-10-19T10:36:22.876Z,20.97
2018-10-19T10:37:23.390Z,21
2018-10-19T10:38:23.400Z,21.35
2018-10-19T10:39:23.926Z,21.62
2018-10-19T10:40:23.309Z,21.73
2018-10-19T10:41:23.439Z,21.79
2018-10-19T10:42:23.194Z,22.11
2018-10-19T10:43:23.206Z,22.17
2018-10-19T10:44:23.221Z,22.41
2018-10-19T10:45:23.484Z,22.43
2018-10-19T10:46:23.243Z,22.6
2018-10-19T10:47:23.516Z,22.7
2018-10-19T10:48:23.516Z,22.98
2018-10-19T10:49:23.535Z,23.15
2018-10-19T10:50:23.289Z,23.18
2018-10-19T10:51:23.554Z,23.31
2018-10-19T10:52:23.310Z,23.23
2018-10-19T10:53:23.326Z,23.25
2018-10-19T10:54:23.612Z,23.36
2018-10-19T10:55:23.836Z,23.54
2018-10-19T10:56:23.608Z,23.78
2018-10-19T10:57:23.608Z,23.96
2018-10-19T10:58:23.381Z,24.08
2018-10-19T10:59:23.671Z,24.2
2018-10-19T11:00:23.443Z,24.32
2018-10-19T11:01:23.678Z,24.29
2018-10-19T11:02:23.434Z,24.33
2018-10-19T11:03:23.443Z,24.42
2018-10-19T11:04:23.763Z,24.6
2018-10-19T11:05:23.721Z,24.74
2018-10-19T11:06:23.483Z,24.8
2018-10-19T11:07:23.894Z,24.99
2018-10-19T11:08:23.271Z,25.23
2018-10-19T11:09:23.547Z,25.43
2018-10-19T11:10:23.811Z,25.43
2018-10-19T11:11:23.566Z,25.58
2018-10-19T11:12:23.832Z,25.77
2018-10-19T11:13:23.851Z,25.87
2018-10-19T11:14:23.877Z,25.99
2018-10-19T11:15:23.877Z,26.25
2018-10-19T11:16:23.910Z,26.31
2018-10-19T11:17:23.918Z,26.28
2018-10-19T11:18:23.920Z,26.28
2018-10-19T11:19:23.932Z,26.47
2018-10-19T11:20:23.441Z,26.47
2018-10-19T11:21:23.709Z,26.63
2018-10-19T11:22:24.229Z,26.77
2018-10-19T11:23:23.999Z,27.03
2018-10-19T11:24:23.771Z,27.1
2018-10-19T11:25:23.520Z,27.33
2018-10-19T11:26:24.044Z,27.42
2018-10-19T11:27:24.055Z,27.74
2018-10-19T11:28:23.841Z,27.67
2018-10-19T11:29:23.585Z,27.67
2018-10-19T11:30:24.121Z,27.73
2018-10-19T11:31:23.863Z,27.9
2018-10-19T11:32:24.139Z,28.11
2018-10-19T11:33:24.160Z,28.3
2018-10-19T11:34:24.174Z,28.48
2018-10-19T11:35:24.205Z,28.52
2018-10-19T11:36:23.952Z,28.67
2018-10-19T11:37:24.495Z,28.49
2018-10-19T11:38:24.236Z,28.47
2018-10-19T11:39:24.247Z,28.47
2018-10-19T11:40:24.011Z,28.48
2018-10-19T11:41:24.035Z,28.57
2018-10-19T11:42:24.303Z,28.74
2018-10-19T11:43:24.397Z,28.94
2018-10-19T11:44:24.360Z,29.08
2018-10-19T11:45:24.363Z,29.19
2018-10-19T11:46:24.121Z,29.5
2018-10-19T11:47:24.133Z,29.73
2018-10-19T11:48:24.152Z,29.95
2018-10-19T11:49:24.418Z,29.97
2018-10-19T11:50:24.446Z,30.02
2018-10-19T11:51:24.457Z,30.15
2018-10-19T11:52:23.970Z,30.16
2018-10-19T11:53:24.293Z,30.25
2018-10-19T11:54:24.260Z,29.97
2018-10-19T11:55:24.289Z,29.86
2018-10-19T11:56:24.302Z,29.81
2018-10-19T11:57:24.313Z,29.73
2018-10-19T11:58:24.331Z,29.57
2018-10-19T11:59:24.347Z,29.36
2018-10-19T12:00:24.376Z,29.65
2018-10-19T12:01:24.645Z,29.79
2018-10-19T12:02:24.152Z,29.84
2018-10-19T12:03:24.513Z,29.98
2018-10-19T12:04:24.731Z,29.95
2018-10-19T12:05:24.727Z,30.12
2018-10-19T12:06:24.740Z,30.19
2018-10-19T12:07:24.505Z,30.44
2018-10-19T12:08:24.777Z,30.54
2018-10-19T12:09:24.548Z,30.73
2018-10-19T12:10:24.564Z,30.92
2018-10-19T12:11:24.832Z,30.77
2018-10-19T12:12:24.606Z,30.92
2018-10-19T12:13:24.617Z,31.34
2018-10-19T12:14:24.890Z,31.29
2018-10-19T12:15:24.657Z,31.4
2018-10-19T12:16:25.226Z,31.39
2018-10-19T12:17:24.941Z,31.42
2018-10-19T12:18:24.962Z,31.51
2018-10-19T12:19:24.471Z,31.62
2018-10-19T12:20:24.505Z,31.44
2018-10-19T12:21:24.835Z,31.54
2018-10-19T12:22:25.041Z,31.54
2018-10-19T12:23:25.111Z,31.51
2018-10-19T12:24:25.079Z,31.65
2018-10-19T12:25:24.847Z,31.71
2018-10-19T12:26:25.118Z,31.93
2018-10-19T12:27:24.883Z,32.04
2018-10-19T12:28:24.914Z,31.97
2018-10-19T12:29:25.176Z,32.01
2018-10-19T12:30:25.209Z,32.04
2018-10-19T12:31:24.971Z,32.21
2018-10-19T12:32:24.979Z,32.18
2018-10-19T12:33:25.252Z,32.29
2018-10-19T12:34:25.275Z,32.33
2018-10-19T12:35:25.441Z,32.21
2018-10-19T12:36:25.314Z,32.19
2018-10-19T12:37:25.081Z,32.04
2018-10-19T12:38:25.104Z,32.16
2018-10-19T12:39:25.387Z,32.03
2018-10-19T12:40:25.396Z,31.99
2018-10-19T12:41:25.411Z,32.04
2018-10-19T12:42:25.182Z,32.29
2018-10-19T12:43:25.523Z,32.37
2018-10-19T12:44:25.477Z,32.31
2018-10-19T12:45:25.243Z,32.52
2018-10-19T12:46:25.269Z,32.46
2018-10-19T12:47:25.800Z,32.49
2018-10-19T12:48:25.560Z,32.75
2018-10-19T12:49:25.591Z,32.58
2018-10-19T12:50:25.095Z,32.59
2018-10-19T12:51:25.614Z,32.43
2018-10-19T12:52:25.389Z,32.45
2018-10-19T12:53:25.678Z,32.43
2018-10-19T12:54:26.037Z,32.48
2018-10-19T12:55:25.709Z,32.56
2018-10-19T12:56:25.464Z,32.75